sensor_id;sensor_type;location;lat;lon;timestamp;temperature;humidity
64650;HTU21D;51061;45.258;38.112;2022-08-19T00:01:43;24.17;74.51
64650;HTU21D;51061;45.258;38.112;2022-08-19T00:04:12;24.16;74.59
64650;HTU21D;51061;45.258;38.112;2022-08-19T00:06:40;24.16;74.59
64650;HTU21D;51061;45.258;38.112;2022-08-19T00:09:09;24.13;74.56
64650;HTU21D;51061;45.258;38.112;2022-08-19T00:11:36;24.10;74.67
64650;HTU21D;51061;45.258;38.112;2022-08-19T00:14:05;24.08;74.62
64650;HTU21D;51061;45.258;38.112;2022-08-19T00:16:32;24.04;74.77
64650;HTU21D;51061;45.258;38.112;2022-08-19T00:18:58;24.02;74.81
64650;HTU21D;51061;45.258;38.112;2022-08-19T00:21:25;24.01;74.92
64650;HTU21D;51061;45.258;38.112;2022-08-19T00:23:53;24.02;74.95
64650;HTU21D;51061;45.258;38.112;2022-08-19T00:26:20;24.02;74.99
64650;HTU21D;51061;45.258;38.112;2022-08-19T00:28:46;24.00;75.05
64650;HTU21D;51061;45.258;38.112;2022-08-19T00:31:13;24.00;75.03
64650;HTU21D;51061;45.258;38.112;2022-08-19T00:33:39;24.00;75.03
64650;HTU21D;51061;45.258;38.112;2022-08-19T00:36:07;23.96;75.00
64650;HTU21D;51061;45.258;38.112;2022-08-19T00:38:35;23.96;75.11
64650;HTU21D;51061;45.258;38.112;2022-08-19T00:41:02;23.92;75.21
64650;HTU21D;51061;45.258;38.112;2022-08-19T00:43:29;23.90;75.22
64650;HTU21D;51061;45.258;38.112;2022-08-19T00:45:55;23.87;75.39
64650;HTU21D;51061;45.258;38.112;2022-08-19T00:48:21;23.84;75.42
64650;HTU21D;51061;45.258;38.112;2022-08-19T00:50:50;23.82;75.60
64650;HTU21D;51061;45.258;38.112;2022-08-19T00:53:22;23.81;75.78
64650;HTU21D;51061;45.258;38.112;2022-08-19T00:55:50;23.80;75.89
64650;HTU21D;51061;45.258;38.112;2022-08-19T00:58:19;23.80;76.04
64650;HTU21D;51061;45.258;38.112;2022-08-19T01:00:46;23.80;76.16
64650;HTU21D;51061;45.258;38.112;2022-08-19T01:03:16;23.82;76.23
64650;HTU21D;51061;45.258;38.112;2022-08-19T01:05:44;23.81;76.34
64650;HTU21D;51061;45.258;38.112;2022-08-19T01:08:12;23.83;76.44
64650;HTU21D;51061;45.258;38.112;2022-08-19T01:10:44;23.83;76.47
64650;HTU21D;51061;45.258;38.112;2022-08-19T01:13:11;23.82;76.57
64650;HTU21D;51061;45.258;38.112;2022-08-19T01:15:44;23.83;76.56
64650;HTU21D;51061;45.258;38.112;2022-08-19T01:18:13;23.83;76.63
64650;HTU21D;51061;45.258;38.112;2022-08-19T01:20:42;23.82;76.71
64650;HTU21D;51061;45.258;38.112;2022-08-19T01:23:08;23.82;76.80
64650;HTU21D;51061;45.258;38.112;2022-08-19T01:25:55;23.79;76.57
64650;HTU21D;51061;45.258;38.112;2022-08-19T01:28:27;23.80;76.60
64650;HTU21D;51061;45.258;38.112;2022-08-19T01:30:54;23.80;76.67
64650;HTU21D;51061;45.258;38.112;2022-08-19T01:33:21;23.80;76.68
64650;HTU21D;51061;45.258;38.112;2022-08-19T01:35:47;23.79;76.62
64650;HTU21D;51061;45.258;38.112;2022-08-19T01:38:22;23.77;76.55
64650;HTU21D;51061;45.258;38.112;2022-08-19T01:40:48;23.75;76.59
64650;HTU21D;51061;45.258;38.112;2022-08-19T01:43:15;23.74;76.56
64650;HTU21D;51061;45.258;38.112;2022-08-19T01:45:41;23.72;76.66
64650;HTU21D;51061;45.258;38.112;2022-08-19T01:48:08;23.70;76.73
64650;HTU21D;51061;45.258;38.112;2022-08-19T01:50:35;23.69;76.82
64650;HTU21D;51061;45.258;38.112;2022-08-19T01:53:06;23.65;76.80
64650;HTU21D;51061;45.258;38.112;2022-08-19T01:55:34;23.56;76.98
64650;HTU21D;51061;45.258;38.112;2022-08-19T01:58:02;23.50;77.19
64650;HTU21D;51061;45.258;38.112;2022-08-19T02:00:31;23.44;77.38
64650;HTU21D;51061;45.258;38.112;2022-08-19T02:02:58;23.40;77.42
64650;HTU21D;51061;45.258;38.112;2022-08-19T02:05:25;23.36;77.51
64650;HTU21D;51061;45.258;38.112;2022-08-19T02:07:51;23.35;77.66
64650;HTU21D;51061;45.258;38.112;2022-08-19T02:10:20;23.32;77.53
64650;HTU21D;51061;45.258;38.112;2022-08-19T02:12:47;23.30;77.64
64650;HTU21D;51061;45.258;38.112;2022-08-19T02:15:15;23.28;77.69
64650;HTU21D;51061;45.258;38.112;2022-08-19T02:17:42;23.28;77.74
64650;HTU21D;51061;45.258;38.112;2022-08-19T02:20:08;23.27;77.72
64650;HTU21D;51061;45.258;38.112;2022-08-19T02:22:35;23.25;77.77
64650;HTU21D;51061;45.258;38.112;2022-08-19T02:25:01;23.26;77.75
64650;HTU21D;51061;45.258;38.112;2022-08-19T02:27:28;23.25;77.81
64650;HTU21D;51061;45.258;38.112;2022-08-19T02:29:54;23.24;77.92
64650;HTU21D;51061;45.258;38.112;2022-08-19T02:32:20;23.25;77.98
64650;HTU21D;51061;45.258;38.112;2022-08-19T02:34:47;23.25;78.06
64650;HTU21D;51061;45.258;38.112;2022-08-19T02:37:13;23.25;78.18
64650;HTU21D;51061;45.258;38.112;2022-08-19T02:39:58;23.24;78.30
64650;HTU21D;51061;45.258;38.112;2022-08-19T02:42:25;23.26;78.40
64650;HTU21D;51061;45.258;38.112;2022-08-19T02:44:51;23.27;78.52
64650;HTU21D;51061;45.258;38.112;2022-08-19T02:47:21;23.29;78.62
64650;HTU21D;51061;45.258;38.112;2022-08-19T02:49:47;23.34;78.65
64650;HTU21D;51061;45.258;38.112;2022-08-19T02:52:16;23.34;78.65
64650;HTU21D;51061;45.258;38.112;2022-08-19T02:54:42;23.36;78.69
64650;HTU21D;51061;45.258;38.112;2022-08-19T02:57:09;23.37;78.66
64650;HTU21D;51061;45.258;38.112;2022-08-19T02:59:35;23.37;78.66
64650;HTU21D;51061;45.258;38.112;2022-08-19T03:02:02;23.39;78.54
64650;HTU21D;51061;45.258;38.112;2022-08-19T03:04:28;23.35;78.53
64650;HTU21D;51061;45.258;38.112;2022-08-19T03:06:55;23.31;78.57
64650;HTU21D;51061;45.258;38.112;2022-08-19T03:09:21;23.31;78.53
64650;HTU21D;51061;45.258;38.112;2022-08-19T03:11:47;23.30;78.53
64650;HTU21D;51061;45.258;38.112;2022-08-19T03:14:13;23.30;78.49
64650;HTU21D;51061;45.258;38.112;2022-08-19T03:16:49;23.34;78.30
64650;HTU21D;51061;45.258;38.112;2022-08-19T03:19:17;23.37;78.37
64650;HTU21D;51061;45.258;38.112;2022-08-19T03:21:45;23.41;78.30
64650;HTU21D;51061;45.258;38.112;2022-08-19T03:24:12;23.45;78.21
64650;HTU21D;51061;45.258;38.112;2022-08-19T03:26:41;23.45;78.29
64650;HTU21D;51061;45.258;38.112;2022-08-19T03:29:08;23.43;78.35
64650;HTU21D;51061;45.258;38.112;2022-08-19T03:31:37;23.46;78.40
64650;HTU21D;51061;45.258;38.112;2022-08-19T03:34:03;23.50;78.37
64650;HTU21D;51061;45.258;38.112;2022-08-19T03:36:30;23.54;78.28
64650;HTU21D;51061;45.258;38.112;2022-08-19T03:38:59;23.58;78.25
64650;HTU21D;51061;45.258;38.112;2022-08-19T03:41:32;23.67;78.13
64650;HTU21D;51061;45.258;38.112;2022-08-19T03:43:59;23.73;78.08
64650;HTU21D;51061;45.258;38.112;2022-08-19T03:46:29;23.83;77.92
64650;HTU21D;51061;45.258;38.112;2022-08-19T03:48:57;23.94;77.78
64650;HTU21D;51061;45.258;38.112;2022-08-19T03:51:29;24.03;77.60
64650;HTU21D;51061;45.258;38.112;2022-08-19T03:53:58;24.15;77.45
64650;HTU21D;51061;45.258;38.112;2022-08-19T03:56:25;24.26;77.29
64650;HTU21D;51061;45.258;38.112;2022-08-19T03:58:52;24.34;77.13
64650;HTU21D;51061;45.258;38.112;2022-08-19T04:01:20;24.43;76.97
64650;HTU21D;51061;45.258;38.112;2022-08-19T04:03:47;24.53;76.82
64650;HTU21D;51061;45.258;38.112;2022-08-19T04:08:41;24.75;76.45
64650;HTU21D;51061;45.258;38.112;2022-08-19T04:11:17;24.88;76.15
64650;HTU21D;51061;45.258;38.112;2022-08-19T04:13:43;25.01;75.96
64650;HTU21D;51061;45.258;38.112;2022-08-19T04:16:10;25.13;75.67
64650;HTU21D;51061;45.258;38.112;2022-08-19T04:18:38;25.27;75.34
64650;HTU21D;51061;45.258;38.112;2022-08-19T04:21:06;25.38;75.13
64650;HTU21D;51061;45.258;38.112;2022-08-19T04:23:32;25.51;74.78
64650;HTU21D;51061;45.258;38.112;2022-08-19T04:25:59;25.63;74.47
64650;HTU21D;51061;45.258;38.112;2022-08-19T04:28:25;25.74;74.18
64650;HTU21D;51061;45.258;38.112;2022-08-19T04:30:53;25.86;73.89
64650;HTU21D;51061;45.258;38.112;2022-08-19T04:33:22;25.97;73.58
64650;HTU21D;51061;45.258;38.112;2022-08-19T04:35:50;26.07;73.35
64650;HTU21D;51061;45.258;38.112;2022-08-19T04:38:19;26.18;73.10
64650;HTU21D;51061;45.258;38.112;2022-08-19T04:40:48;26.30;72.72
64650;HTU21D;51061;45.258;38.112;2022-08-19T04:43:34;26.41;72.55
64650;HTU21D;51061;45.258;38.112;2022-08-19T04:46:11;26.54;72.25
64650;HTU21D;51061;45.258;38.112;2022-08-19T04:48:39;26.65;72.03
64650;HTU21D;51061;45.258;38.112;2022-08-19T04:51:07;26.76;71.73
64650;HTU21D;51061;45.258;38.112;2022-08-19T04:53:36;26.86;71.41
64650;HTU21D;51061;45.258;38.112;2022-08-19T04:56:11;26.95;71.09
64650;HTU21D;51061;45.258;38.112;2022-08-19T04:58:39;27.01;70.91
64650;HTU21D;51061;45.258;38.112;2022-08-19T05:01:06;27.11;70.67
64650;HTU21D;51061;45.258;38.112;2022-08-19T05:03:32;27.20;70.46
64650;HTU21D;51061;45.258;38.112;2022-08-19T05:06:05;27.29;70.19
64650;HTU21D;51061;45.258;38.112;2022-08-19T05:08:34;27.36;70.00
64650;HTU21D;51061;45.258;38.112;2022-08-19T05:11:11;27.45;69.78
64650;HTU21D;51061;45.258;38.112;2022-08-19T05:13:38;27.53;69.62
64650;HTU21D;51061;45.258;38.112;2022-08-19T05:16:04;27.61;69.51
64650;HTU21D;51061;45.258;38.112;2022-08-19T05:18:30;27.69;69.30
64650;HTU21D;51061;45.258;38.112;2022-08-19T05:21:17;27.74;69.16
64650;HTU21D;51061;45.258;38.112;2022-08-19T05:24:03;27.82;68.78
64650;HTU21D;51061;45.258;38.112;2022-08-19T05:26:29;27.89;68.56
64650;HTU21D;51061;45.258;38.112;2022-08-19T05:28:55;27.97;68.30
64650;HTU21D;51061;45.258;38.112;2022-08-19T05:31:21;28.05;68.05
64650;HTU21D;51061;45.258;38.112;2022-08-19T05:33:48;28.13;67.80
64650;HTU21D;51061;45.258;38.112;2022-08-19T05:36:15;28.24;67.53
64650;HTU21D;51061;45.258;38.112;2022-08-19T05:38:41;28.30;67.38
64650;HTU21D;51061;45.258;38.112;2022-08-19T05:41:09;28.34;67.20
64650;HTU21D;51061;45.258;38.112;2022-08-19T05:43:36;28.38;66.98
64650;HTU21D;51061;45.258;38.112;2022-08-19T05:46:04;28.43;66.74
64650;HTU21D;51061;45.258;38.112;2022-08-19T05:48:35;28.46;66.51
64650;HTU21D;51061;45.258;38.112;2022-08-19T05:51:05;28.46;66.46
64650;HTU21D;51061;45.258;38.112;2022-08-19T05:53:35;28.54;66.30
64650;HTU21D;51061;45.258;38.112;2022-08-19T05:56:09;28.59;65.88
64650;HTU21D;51061;45.258;38.112;2022-08-19T05:58:36;28.62;65.70
64650;HTU21D;51061;45.258;38.112;2022-08-19T06:01:04;28.72;65.56
64650;HTU21D;51061;45.258;38.112;2022-08-19T06:03:35;28.84;65.15
64650;HTU21D;51061;45.258;38.112;2022-08-19T06:06:11;28.93;64.86
64650;HTU21D;51061;45.258;38.112;2022-08-19T06:08:37;29.01;64.50
64650;HTU21D;51061;45.258;38.112;2022-08-19T06:13:52;29.20;63.66
64650;HTU21D;51061;45.258;38.112;2022-08-19T06:16:20;29.22;63.50
64650;HTU21D;51061;45.258;38.112;2022-08-19T06:18:54;29.30;63.30
64650;HTU21D;51061;45.258;38.112;2022-08-19T06:21:25;29.35;62.79
64650;HTU21D;51061;45.258;38.112;2022-08-19T06:23:53;29.35;62.68
64650;HTU21D;51061;45.258;38.112;2022-08-19T06:26:21;29.45;62.51
64650;HTU21D;51061;45.258;38.112;2022-08-19T06:28:48;29.59;62.08
64650;HTU21D;51061;45.258;38.112;2022-08-19T06:31:20;29.71;61.70
64650;HTU21D;51061;45.258;38.112;2022-08-19T06:33:47;29.78;61.50
64650;HTU21D;51061;45.258;38.112;2022-08-19T06:36:29;29.91;61.08
64650;HTU21D;51061;45.258;38.112;2022-08-19T06:38:58;30.03;60.73
64650;HTU21D;51061;45.258;38.112;2022-08-19T06:41:25;30.10;60.42
64650;HTU21D;51061;45.258;38.112;2022-08-19T06:43:52;30.21;60.25
64650;HTU21D;51061;45.258;38.112;2022-08-19T06:46:18;30.34;60.06
64650;HTU21D;51061;45.258;38.112;2022-08-19T06:48:46;30.47;59.67
64650;HTU21D;51061;45.258;38.112;2022-08-19T06:51:17;30.61;59.05
64650;HTU21D;51061;45.258;38.112;2022-08-19T06:53:47;30.68;58.88
64650;HTU21D;51061;45.258;38.112;2022-08-19T06:56:15;30.82;58.41
64650;HTU21D;51061;45.258;38.112;2022-08-19T06:58:41;30.90;58.23
64650;HTU21D;51061;45.258;38.112;2022-08-19T07:01:08;31.02;57.96
64650;HTU21D;51061;45.258;38.112;2022-08-19T07:03:36;31.09;57.42
64650;HTU21D;51061;45.258;38.112;2022-08-19T07:06:07;31.10;57.38
64650;HTU21D;51061;45.258;38.112;2022-08-19T07:08:34;31.20;57.10
64650;HTU21D;51061;45.258;38.112;2022-08-19T07:11:06;31.30;56.90
64650;HTU21D;51061;45.258;38.112;2022-08-19T07:13:33;31.43;56.74
64650;HTU21D;51061;45.258;38.112;2022-08-19T07:16:06;31.59;56.25
64650;HTU21D;51061;45.258;38.112;2022-08-19T07:18:34;31.74;55.88
64650;HTU21D;51061;45.258;38.112;2022-08-19T07:21:09;31.86;55.62
64650;HTU21D;51061;45.258;38.112;2022-08-19T07:23:35;31.92;54.49
64650;HTU21D;51061;45.258;38.112;2022-08-19T07:26:13;31.86;54.49
64650;HTU21D;51061;45.258;38.112;2022-08-19T07:28:41;31.86;54.56
64650;HTU21D;51061;45.258;38.112;2022-08-19T07:31:14;31.97;54.13
64650;HTU21D;51061;45.258;38.112;2022-08-19T07:33:41;32.01;53.89
64650;HTU21D;51061;45.258;38.112;2022-08-19T07:36:10;32.07;53.65
64650;HTU21D;51061;45.258;38.112;2022-08-19T07:38:40;32.07;53.73
64650;HTU21D;51061;45.258;38.112;2022-08-19T07:41:10;32.16;53.74
64650;HTU21D;51061;45.258;38.112;2022-08-19T07:43:36;32.30;53.46
64650;HTU21D;51061;45.258;38.112;2022-08-19T07:46:03;32.45;53.23
64650;HTU21D;51061;45.258;38.112;2022-08-19T07:48:29;32.60;52.82
64650;HTU21D;51061;45.258;38.112;2022-08-19T07:50:58;32.70;52.30
64650;HTU21D;51061;45.258;38.112;2022-08-19T07:53:27;32.69;52.22
64650;HTU21D;51061;45.258;38.112;2022-08-19T07:55:54;32.66;52.04
64650;HTU21D;51061;45.258;38.112;2022-08-19T07:58:21;32.61;51.91
64650;HTU21D;51061;45.258;38.112;2022-08-19T08:00:49;32.73;51.59
64650;HTU21D;51061;45.258;38.112;2022-08-19T08:03:18;32.76;51.11
64650;HTU21D;51061;45.258;38.112;2022-08-19T08:05:46;32.82;51.21
64650;HTU21D;51061;45.258;38.112;2022-08-19T08:08:30;33.23;50.10
64650;HTU21D;51061;45.258;38.112;2022-08-19T08:11:04;34.50;47.38
64650;HTU21D;51061;45.258;38.112;2022-08-19T08:13:31;35.48;45.09
64650;HTU21D;51061;45.258;38.112;2022-08-19T08:16:02;36.26;43.59
64650;HTU21D;51061;45.258;38.112;2022-08-19T08:18:28;36.93;42.40
64650;HTU21D;51061;45.258;38.112;2022-08-19T08:20:56;37.48;41.36
64650;HTU21D;51061;45.258;38.112;2022-08-19T08:23:23;37.94;40.19
64650;HTU21D;51061;45.258;38.112;2022-08-19T08:25:52;38.37;39.39
64650;HTU21D;51061;45.258;38.112;2022-08-19T08:28:19;38.78;38.49
64650;HTU21D;51061;45.258;38.112;2022-08-19T08:30:47;39.23;37.79
64650;HTU21D;51061;45.258;38.112;2022-08-19T08:33:18;39.92;35.73
64650;HTU21D;51061;45.258;38.112;2022-08-19T08:35:45;40.32;34.57
64650;HTU21D;51061;45.258;38.112;2022-08-19T08:38:11;40.92;33.41
64650;HTU21D;51061;45.258;38.112;2022-08-19T08:40:57;41.78;32.37
64650;HTU21D;51061;45.258;38.112;2022-08-19T08:43:35;42.05;30.93
64650;HTU21D;51061;45.258;38.112;2022-08-19T08:46:14;42.22;30.05
64650;HTU21D;51061;45.258;38.112;2022-08-19T08:49:00;42.19;30.93
64650;HTU21D;51061;45.258;38.112;2022-08-19T08:51:32;42.17;30.35
64650;HTU21D;51061;45.258;38.112;2022-08-19T08:54:02;42.15;29.98
64650;HTU21D;51061;45.258;38.112;2022-08-19T08:56:29;42.26;29.74
64650;HTU21D;51061;45.258;38.112;2022-08-19T08:59:02;42.52;29.45
64650;HTU21D;51061;45.258;38.112;2022-08-19T09:01:29;42.77;28.83
64650;HTU21D;51061;45.258;38.112;2022-08-19T09:03:55;42.89;28.51
64650;HTU21D;51061;45.258;38.112;2022-08-19T09:16:38;43.35;28.01
64650;HTU21D;51061;45.258;38.112;2022-08-19T09:19:07;43.65;27.49
64650;HTU21D;51061;45.258;38.112;2022-08-19T09:21:34;43.82;26.96
64650;HTU21D;51061;45.258;38.112;2022-08-19T09:24:02;43.74;26.81
64650;HTU21D;51061;45.258;38.112;2022-08-19T09:26:28;43.94;26.67
64650;HTU21D;51061;45.258;38.112;2022-08-19T09:28:55;44.29;26.15
64650;HTU21D;51061;45.258;38.112;2022-08-19T09:31:26;44.76;25.88
64650;HTU21D;51061;45.258;38.112;2022-08-19T09:33:53;44.71;25.00
64650;HTU21D;51061;45.258;38.112;2022-08-19T09:36:24;44.45;25.33
64650;HTU21D;51061;45.258;38.112;2022-08-19T09:38:51;44.01;25.58
64650;HTU21D;51061;45.258;38.112;2022-08-19T09:41:19;42.97;26.89
64650;HTU21D;51061;45.258;38.112;2022-08-19T09:43:47;42.33;27.80
64650;HTU21D;51061;45.258;38.112;2022-08-19T09:46:13;41.50;29.13
64650;HTU21D;51061;45.258;38.112;2022-08-19T09:48:42;40.48;30.01
64650;HTU21D;51061;45.258;38.112;2022-08-19T09:51:15;39.63;31.39
64650;HTU21D;51061;45.258;38.112;2022-08-19T09:53:43;38.96;31.92
64650;HTU21D;51061;45.258;38.112;2022-08-19T09:56:11;38.30;32.65
64650;HTU21D;51061;45.258;38.112;2022-08-19T09:58:39;37.70;33.38
64650;HTU21D;51061;45.258;38.112;2022-08-19T10:01:07;37.21;34.14
64650;HTU21D;51061;45.258;38.112;2022-08-19T10:03:34;36.83;34.66
64650;HTU21D;51061;45.258;38.112;2022-08-19T10:06:03;36.47;34.96
64650;HTU21D;51061;45.258;38.112;2022-08-19T10:08:35;36.13;35.56
64650;HTU21D;51061;45.258;38.112;2022-08-19T10:11:03;35.81;35.45
64650;HTU21D;51061;45.258;38.112;2022-08-19T10:13:31;35.42;36.19
64650;HTU21D;51061;45.258;38.112;2022-08-19T10:16:05;35.14;37.04
64650;HTU21D;51061;45.258;38.112;2022-08-19T10:18:32;34.90;37.97
64650;HTU21D;51061;45.258;38.112;2022-08-19T10:21:24;34.66;38.75
64650;HTU21D;51061;45.258;38.112;2022-08-19T10:23:52;34.61;39.43
64650;HTU21D;51061;45.258;38.112;2022-08-19T10:26:21;34.52;39.93
64650;HTU21D;51061;45.258;38.112;2022-08-19T10:28:48;34.45;39.99
64650;HTU21D;51061;45.258;38.112;2022-08-19T10:31:21;34.38;40.41
64650;HTU21D;51061;45.258;38.112;2022-08-19T10:33:50;34.29;40.99
64650;HTU21D;51061;45.258;38.112;2022-08-19T10:36:20;34.18;41.30
64650;HTU21D;51061;45.258;38.112;2022-08-19T10:38:50;34.05;41.66
64650;HTU21D;51061;45.258;38.112;2022-08-19T10:41:22;33.95;41.90
64650;HTU21D;51061;45.258;38.112;2022-08-19T10:43:53;33.89;42.22
64650;HTU21D;51061;45.258;38.112;2022-08-19T10:46:22;33.77;42.51
64650;HTU21D;51061;45.258;38.112;2022-08-19T10:48:49;33.68;42.75
64650;HTU21D;51061;45.258;38.112;2022-08-19T10:51:16;33.58;42.94
64650;HTU21D;51061;45.258;38.112;2022-08-19T10:54:01;33.43;43.04
64650;HTU21D;51061;45.258;38.112;2022-08-19T10:56:31;33.30;43.42
64650;HTU21D;51061;45.258;38.112;2022-08-19T10:59:21;33.15;43.92
64650;HTU21D;51061;45.258;38.112;2022-08-19T11:01:48;33.02;44.16
64650;HTU21D;51061;45.258;38.112;2022-08-19T11:04:15;32.92;44.56
64650;HTU21D;51061;45.258;38.112;2022-08-19T11:06:47;32.83;44.86
64650;HTU21D;51061;45.258;38.112;2022-08-19T11:09:19;32.72;45.06
64650;HTU21D;51061;45.258;38.112;2022-08-19T11:11:46;32.67;45.50
64650;HTU21D;51061;45.258;38.112;2022-08-19T11:14:16;32.58;45.65
64650;HTU21D;51061;45.258;38.112;2022-08-19T11:16:44;32.53;45.94
64650;HTU21D;51061;45.258;38.112;2022-08-19T11:19:11;32.47;46.19
64650;HTU21D;51061;45.258;38.112;2022-08-19T11:21:40;32.40;46.39
64650;HTU21D;51061;45.258;38.112;2022-08-19T11:24:10;32.33;46.59
64650;HTU21D;51061;45.258;38.112;2022-08-19T11:26:38;32.30;46.65
64650;HTU21D;51061;45.258;38.112;2022-08-19T11:29:06;32.26;46.80
64650;HTU21D;51061;45.258;38.112;2022-08-19T11:31:38;32.19;47.20
64650;HTU21D;51061;45.258;38.112;2022-08-19T11:34:07;32.16;47.26
64650;HTU21D;51061;45.258;38.112;2022-08-19T11:36:34;32.10;47.53
64650;HTU21D;51061;45.258;38.112;2022-08-19T11:39:05;32.05;47.41
64650;HTU21D;51061;45.258;38.112;2022-08-19T11:41:31;32.00;47.73
64650;HTU21D;51061;45.258;38.112;2022-08-19T11:43:57;31.97;47.85
64650;HTU21D;51061;45.258;38.112;2022-08-19T11:46:25;31.99;47.95
64650;HTU21D;51061;45.258;38.112;2022-08-19T11:48:51;32.01;48.01
64650;HTU21D;51061;45.258;38.112;2022-08-19T11:51:21;32.08;47.94
64650;HTU21D;51061;45.258;38.112;2022-08-19T11:53:48;32.14;47.96
64650;HTU21D;51061;45.258;38.112;2022-08-19T11:56:17;32.24;47.77
64650;HTU21D;51061;45.258;38.112;2022-08-19T11:58:44;32.32;47.78
64650;HTU21D;51061;45.258;38.112;2022-08-19T12:01:12;32.42;47.67
64650;HTU21D;51061;45.258;38.112;2022-08-19T12:03:43;32.54;47.37
64650;HTU21D;51061;45.258;38.112;2022-08-19T12:06:12;32.66;47.34
64650;HTU21D;51061;45.258;38.112;2022-08-19T12:08:40;32.77;47.27
64650;HTU21D;51061;45.258;38.112;2022-08-19T12:11:06;32.88;47.11
64650;HTU21D;51061;45.258;38.112;2022-08-19T12:13:36;32.96;46.57
64650;HTU21D;51061;45.258;38.112;2022-08-19T12:16:17;33.03;46.46
64650;HTU21D;51061;45.258;38.112;2022-08-19T12:18:45;33.08;46.25
64650;HTU21D;51061;45.258;38.112;2022-08-19T12:21:19;33.14;45.93
64650;HTU21D;51061;45.258;38.112;2022-08-19T12:23:48;33.17;45.61
64650;HTU21D;51061;45.258;38.112;2022-08-19T12:26:14;33.15;45.09
64650;HTU21D;51061;45.258;38.112;2022-08-19T12:28:41;33.09;44.93
64650;HTU21D;51061;45.258;38.112;2022-08-19T12:31:07;33.05;44.64
64650;HTU21D;51061;45.258;38.112;2022-08-19T12:33:34;32.97;44.46
64650;HTU21D;51061;45.258;38.112;2022-08-19T12:36:03;32.88;44.83
64650;HTU21D;51061;45.258;38.112;2022-08-19T12:38:29;32.82;45.16
64650;HTU21D;51061;45.258;38.112;2022-08-19T12:40:55;32.74;45.65
64650;HTU21D;51061;45.258;38.112;2022-08-19T12:43:21;32.67;46.05
64650;HTU21D;51061;45.258;38.112;2022-08-19T12:45:48;32.60;46.56
64650;HTU21D;51061;45.258;38.112;2022-08-19T12:48:14;32.50;47.15
64650;HTU21D;51061;45.258;38.112;2022-08-19T12:50:41;32.39;47.68
64650;HTU21D;51061;45.258;38.112;2022-08-19T12:53:07;32.26;48.37
64650;HTU21D;51061;45.258;38.112;2022-08-19T12:55:34;32.17;48.86
64650;HTU21D;51061;45.258;38.112;2022-08-19T12:58:00;32.10;49.20
64650;HTU21D;51061;45.258;38.112;2022-08-19T13:00:29;32.05;49.54
64650;HTU21D;51061;45.258;38.112;2022-08-19T13:02:59;31.97;49.95
64650;HTU21D;51061;45.258;38.112;2022-08-19T13:05:28;31.92;50.34
64650;HTU21D;51061;45.258;38.112;2022-08-19T13:07:56;31.86;50.53
64650;HTU21D;51061;45.258;38.112;2022-08-19T13:10:32;31.80;50.72
64650;HTU21D;51061;45.258;38.112;2022-08-19T13:13:04;31.78;50.92
64650;HTU21D;51061;45.258;38.112;2022-08-19T13:15:37;31.73;50.65
64650;HTU21D;51061;45.258;38.112;2022-08-19T13:18:06;31.67;50.62
64650;HTU21D;51061;45.258;38.112;2022-08-19T13:20:33;31.58;50.67
64650;HTU21D;51061;45.258;38.112;2022-08-19T13:23:00;31.46;50.76
64650;HTU21D;51061;45.258;38.112;2022-08-19T13:25:26;31.37;50.80
64650;HTU21D;51061;45.258;38.112;2022-08-19T13:27:52;31.31;50.79
64650;HTU21D;51061;45.258;38.112;2022-08-19T13:30:19;31.27;50.56
64650;HTU21D;51061;45.258;38.112;2022-08-19T13:33:05;31.19;50.49
64650;HTU21D;51061;45.258;38.112;2022-08-19T13:35:47;31.13;50.48
64650;HTU21D;51061;45.258;38.112;2022-08-19T13:38:17;31.10;49.91
64650;HTU21D;51061;45.258;38.112;2022-08-19T13:40:44;30.96;49.90
64650;HTU21D;51061;45.258;38.112;2022-08-19T13:43:12;30.91;50.00
64650;HTU21D;51061;45.258;38.112;2022-08-19T13:45:39;30.85;50.11
64650;HTU21D;51061;45.258;38.112;2022-08-19T13:48:06;30.82;50.21
64650;HTU21D;51061;45.258;38.112;2022-08-19T13:50:38;30.79;50.27
64650;HTU21D;51061;45.258;38.112;2022-08-19T13:53:08;30.72;50.40
64650;HTU21D;51061;45.258;38.112;2022-08-19T13:55:35;30.70;50.57
64650;HTU21D;51061;45.258;38.112;2022-08-19T13:58:02;30.63;50.75
64650;HTU21D;51061;45.258;38.112;2022-08-19T14:00:32;30.57;50.76
64650;HTU21D;51061;45.258;38.112;2022-08-19T14:02:59;30.53;50.92
64650;HTU21D;51061;45.258;38.112;2022-08-19T14:05:26;30.47;51.18
64650;HTU21D;51061;45.258;38.112;2022-08-19T14:07:53;30.41;51.55
64650;HTU21D;51061;45.258;38.112;2022-08-19T14:10:20;30.34;51.78
64650;HTU21D;51061;45.258;38.112;2022-08-19T14:12:47;30.25;52.13
64650;HTU21D;51061;45.258;38.112;2022-08-19T14:15:14;30.19;51.88
64650;HTU21D;51061;45.258;38.112;2022-08-19T14:17:43;30.10;51.73
64650;HTU21D;51061;45.258;38.112;2022-08-19T14:20:11;30.01;51.69
64650;HTU21D;51061;45.258;38.112;2022-08-19T14:22:40;29.95;51.63
64650;HTU21D;51061;45.258;38.112;2022-08-19T14:25:09;29.85;51.72
64650;HTU21D;51061;45.258;38.112;2022-08-19T14:27:37;29.76;51.94
64650;HTU21D;51061;45.258;38.112;2022-08-19T14:30:04;29.72;52.26
64650;HTU21D;51061;45.258;38.112;2022-08-19T14:32:33;29.68;52.36
64650;HTU21D;51061;45.258;38.112;2022-08-19T14:35:00;29.72;52.39
64650;HTU21D;51061;45.258;38.112;2022-08-19T14:37:26;29.76;52.33
64650;HTU21D;51061;45.258;38.112;2022-08-19T14:39:52;29.79;52.24
64650;HTU21D;51061;45.258;38.112;2022-08-19T14:42:18;29.85;52.14
64650;HTU21D;51061;45.258;38.112;2022-08-19T14:44:45;29.86;52.11
64650;HTU21D;51061;45.258;38.112;2022-08-19T14:47:11;29.88;52.10
64650;HTU21D;51061;45.258;38.112;2022-08-19T14:49:37;29.89;51.51
64650;HTU21D;51061;45.258;38.112;2022-08-19T14:52:05;29.89;51.27
64650;HTU21D;51061;45.258;38.112;2022-08-19T14:54:31;29.89;51.20
64650;HTU21D;51061;45.258;38.112;2022-08-19T14:56:58;29.86;51.21
64650;HTU21D;51061;45.258;38.112;2022-08-19T14:59:24;29.80;51.01
64650;HTU21D;51061;45.258;38.112;2022-08-19T15:01:50;29.74;51.11
64650;HTU21D;51061;45.258;38.112;2022-08-19T15:04:16;29.68;51.27
64650;HTU21D;51061;45.258;38.112;2022-08-19T15:06:42;29.66;51.41
64650;HTU21D;51061;45.258;38.112;2022-08-19T15:09:09;29.64;51.37
64650;HTU21D;51061;45.258;38.112;2022-08-19T15:11:35;29.63;51.53
64650;HTU21D;51061;45.258;38.112;2022-08-19T15:14:03;29.62;51.49
64650;HTU21D;51061;45.258;38.112;2022-08-19T15:16:32;29.61;51.58
64650;HTU21D;51061;45.258;38.112;2022-08-19T15:18:58;29.61;51.51
64650;HTU21D;51061;45.258;38.112;2022-08-19T15:21:26;29.61;51.51
64650;HTU21D;51061;45.258;38.112;2022-08-19T15:23:54;29.60;51.39
64650;HTU21D;51061;45.258;38.112;2022-08-19T15:26:21;29.57;51.27
64650;HTU21D;51061;45.258;38.112;2022-08-19T15:28:47;29.56;51.14